createdAt,value
2019-03-26T00:00:52.892Z,3.49
2019-03-26T00:01:53.919Z,3.52
2019-03-26T00:02:54.670Z,3.45
2019-03-26T00:04:07.230Z,3.5
2019-03-26T00:05:05.725Z,3.63
2019-03-26T00:06:06.198Z,3.59
2019-03-26T00:07:06.230Z,3.63
2019-03-26T00:08:06.424Z,3.63
2019-03-26T00:09:06.899Z,3.66
2019-03-26T00:10:07.098Z,3.63
2019-03-26T00:11:08.133Z,3.61
2019-03-26T00:12:08.722Z,3.71
2019-03-26T00:13:09.198Z,3.73
2019-03-26T00:14:09.951Z,3.91
2019-03-26T00:15:10.445Z,3.76
2019-03-26T00:16:11.216Z,3.85
2019-03-26T00:17:11.246Z,3.71
2019-03-26T00:18:11.725Z,3.84
2019-03-26T00:19:12.194Z,3.84
2019-03-26T00:20:13.507Z,3.89
2019-03-26T00:21:13.978Z,3.88
2019-03-26T00:22:14.448Z,3.92
2019-03-26T00:23:14.925Z,3.88
2019-03-26T00:24:15.952Z,3.73
2019-03-26T00:25:16.819Z,3.7
2019-03-26T00:26:17.572Z,3.73
2019-03-26T00:27:17.769Z,3.71
2019-03-26T00:28:18.316Z,3.74
2019-03-26T00:29:18.791Z,3.66
2019-03-26T00:30:19.546Z,3.7
2019-03-26T00:31:19.752Z,3.7
2019-03-26T00:32:20.231Z,3.66
2019-03-26T00:33:20.957Z,3.68
2019-03-26T00:33:37.793Z,3.64
2019-03-26T00:33:41.958Z,3.64
2019-03-26T00:34:42.375Z,3.61
2019-03-26T00:35:43.121Z,3.49
2019-03-26T00:36:43.323Z,3.46
2019-03-26T00:37:44.353Z,3.41
2019-03-26T00:38:45.808Z,3.53
2019-03-26T00:39:45.950Z,3.49
2019-03-26T00:40:47.556Z,3.59
2019-03-26T00:41:48.050Z,3.48
2019-03-26T00:42:49.634Z,3.56
2019-03-26T00:43:50.115Z,3.55
2019-03-26T00:44:51.060Z,3.49
2019-03-26T00:45:52.087Z,3.64
2019-03-26T00:46:52.849Z,3.61
2019-03-26T00:47:53.334Z,3.61
2019-03-26T00:48:54.097Z,3.66
2019-03-26T00:49:54.329Z,3.64
2019-03-26T00:50:54.523Z,3.64
2019-03-26T00:51:54.722Z,3.66
2019-03-26T00:52:55.473Z,3.68
2019-03-26T00:53:56.229Z,3.67
2019-03-26T00:54:56.711Z,3.66
2019-03-26T00:55:57.183Z,3.61
2019-03-26T00:56:57.418Z,3.64
2019-03-26T00:58:01.966Z,3.7
2019-03-26T00:58:59.510Z,3.68
2019-03-26T01:00:00.458Z,3.71
2019-03-26T01:01:00.229Z,3.63
2019-03-26T01:02:00.982Z,3.67
2019-03-26T01:03:01.742Z,3.58
2019-03-26T01:04:02.494Z,3.7
2019-03-26T01:05:03.160Z,3.66
2019-03-26T01:06:04.192Z,3.63
2019-03-26T01:07:04.669Z,3.63
2019-03-26T01:08:05.702Z,3.58
2019-03-26T01:09:05.727Z,3.64
2019-03-26T01:10:06.759Z,3.58
2019-03-26T01:11:06.957Z,3.55
2019-03-26T01:12:07.431Z,3.58
2019-03-26T01:13:07.630Z,3.59
2019-03-26T01:14:08.376Z,3.58
2019-03-26T01:15:09.069Z,3.7
2019-03-26T01:16:10.175Z,3.74
2019-03-26T01:17:10.708Z,3.55
2019-03-26T01:18:11.465Z,3.7
2019-03-26T01:19:11.939Z,3.67
2019-03-26T01:20:12.772Z,3.81
2019-03-26T01:21:13.536Z,3.7
2019-03-26T01:22:14.566Z,3.7
2019-03-26T01:23:14.761Z,3.67
2019-03-26T01:24:15.800Z,3.67
2019-03-26T01:25:16.754Z,3.7
2019-03-26T01:26:17.228Z,3.68
2019-03-26T01:27:17.705Z,3.63
2019-03-26T01:28:18.740Z,3.71
2019-03-26T01:29:18.934Z,3.71
2019-03-26T01:30:19.696Z,3.7
2019-03-26T01:31:20.451Z,3.77
2019-03-26T01:32:20.925Z,3.76
2019-03-26T01:33:21.683Z,3.78
2019-03-26T01:34:22.157Z,3.81
2019-03-26T01:35:23.109Z,3.7
2019-03-26T01:36:23.860Z,3.71
2019-03-26T01:37:24.059Z,3.73
2019-03-26T01:38:24.817Z,3.71
2019-03-26T01:39:26.407Z,3.76
2019-03-26T01:40:26.715Z,3.85
2019-03-26T01:41:27.465Z,3.76
2019-03-26T01:42:28.498Z,3.73
2019-03-26T01:43:29.535Z,3.82
2019-03-26T01:44:30.296Z,3.88
2019-03-26T01:45:31.248Z,3.89
2019-03-26T01:46:31.723Z,3.82
2019-03-26T01:47:32.468Z,3.85
2019-03-26T01:48:32.947Z,3.7
2019-03-26T01:49:33.567Z,3.71
2019-03-26T01:50:34.319Z,3.74
2019-03-26T01:51:35.075Z,3.71
2019-03-26T01:52:35.827Z,3.73
2019-03-26T01:53:36.299Z,3.68
2019-03-26T01:54:36.493Z,3.59
2019-03-26T01:55:37.417Z,3.66
2019-03-26T01:56:38.506Z,3.63
2019-03-26T01:57:39.537Z,3.61
2019-03-26T01:58:40.010Z,3.66
2019-03-26T01:59:40.487Z,3.56
2019-03-26T02:00:40.963Z,3.68
2019-03-26T02:01:41.439Z,3.58
2019-03-26T02:02:42.473Z,3.55
2019-03-26T02:03:42.680Z,3.56
2019-03-26T02:04:43.237Z,3.58
2019-03-26T02:05:44.177Z,3.56
2019-03-26T02:06:44.442Z,3.59
2019-03-26T02:07:45.475Z,3.58
2019-03-26T02:08:45.696Z,3.58
2019-03-26T02:09:46.481Z,3.5
2019-03-26T02:10:47.539Z,3.46
2019-03-26T02:11:48.015Z,3.5
2019-03-26T02:12:50.325Z,3.4
2019-03-26T02:13:50.801Z,3.4
2019-03-26T02:14:51.618Z,3.33
2019-03-26T02:15:51.813Z,3.41
2019-03-26T02:16:52.566Z,3.41
2019-03-26T02:17:53.042Z,3.43
2019-03-26T02:18:54.074Z,3.45
2019-03-26T02:19:54.839Z,3.41
2019-03-26T02:20:54.589Z,3.45
2019-03-26T02:21:55.068Z,3.41
2019-03-26T02:22:56.100Z,3.46
2019-03-26T02:23:56.691Z,3.46
2019-03-26T02:24:57.449Z,3.58
2019-03-26T02:25:58.296Z,3.49
2019-03-26T02:26:58.494Z,3.48
2019-03-26T02:27:59.244Z,3.46
2019-03-26T02:28:59.793Z,3.4
2019-03-26T02:30:00.549Z,3.5
2019-03-26T02:31:01.101Z,3.3
2019-03-26T02:32:01.856Z,3.29
2019-03-26T02:33:03.207Z,3.3
2019-03-26T02:34:03.990Z,3.3
2019-03-26T02:35:20.554Z,3.29
2019-03-26T02:35:25.823Z,3.33
2019-03-26T02:36:26.753Z,3.3
2019-03-26T02:37:27.369Z,3.37
2019-03-26T02:38:28.000Z,3.37
2019-03-26T02:39:28.879Z,3.48
2019-03-26T02:40:29.197Z,3.43
2019-03-26T02:41:30.286Z,3.52
2019-03-26T02:42:31.064Z,3.37
2019-03-26T02:43:32.197Z,3.29
2019-03-26T02:44:33.526Z,3.29
2019-03-26T02:45:34.320Z,3.31
2019-03-26T02:46:35.759Z,3.31
2019-03-26T02:47:37.545Z,3.3
2019-03-26T02:48:38.141Z,3.37
2019-03-26T02:49:38.202Z,3.3
2019-03-26T02:50:38.804Z,3.26
2019-03-26T02:51:39.846Z,3.37
2019-03-26T02:52:41.002Z,3.45
2019-03-26T02:53:41.308Z,3.48
2019-03-26T02:54:42.342Z,3.48
2019-03-26T02:55:42.956Z,3.41
2019-03-26T02:56:44.397Z,3.46
2019-03-26T02:57:45.029Z,3.5
2019-03-26T02:58:46.064Z,3.55
2019-03-26T02:59:46.532Z,3.4
2019-03-26T03:00:46.735Z,3.41
2019-03-26T03:01:47.924Z,3.36
2019-03-26T03:02:48.578Z,3.4
2019-03-26T03:03:49.177Z,3.49
2019-03-26T03:04:50.541Z,3.3
2019-03-26T03:05:50.310Z,3.24
2019-03-26T03:06:50.832Z,3.3
2019-03-26T03:07:51.886Z,3.33
2019-03-26T03:08:52.782Z,3.27
2019-03-26T03:09:53.098Z,3.31
2019-03-26T03:10:54.411Z,3.26
2019-03-26T03:11:55.027Z,3.22
2019-03-26T03:12:55.369Z,3.29
2019-03-26T03:13:56.419Z,3.29
2019-03-26T03:14:57.112Z,3.3
2019-03-26T03:15:57.886Z,3.27
2019-03-26T03:16:58.752Z,3.31
2019-03-26T03:17:58.640Z,3.31
2019-03-26T03:18:59.098Z,3.3
2019-03-26T03:20:00.525Z,3.45
2019-03-26T03:21:01.180Z,3.37
2019-03-26T03:22:02.540Z,3.41
2019-03-26T03:23:03.689Z,3.3
2019-03-26T03:24:03.764Z,3.4
2019-03-26T03:25:04.093Z,3.27
2019-03-26T03:26:04.701Z,3.31
2019-03-26T03:27:05.612Z,3.21
2019-03-26T03:28:06.285Z,3.09
2019-03-26T03:29:07.623Z,3.12
2019-03-26T03:30:08.474Z,3.01
2019-03-26T03:31:09.264Z,3.03
2019-03-26T03:32:08.654Z,2.95
2019-03-26T03:33:09.548Z,2.97
2019-03-26T03:34:11.023Z,2.91
2019-03-26T03:35:11.990Z,2.93
2019-03-26T03:36:12.784Z,2.93
2019-03-26T03:37:14.141Z,2.88
2019-03-26T03:38:14.560Z,2.83
2019-03-26T03:39:15.162Z,2.82
2019-03-26T03:40:16.504Z,2.73
2019-03-26T03:41:17.813Z,2.87
2019-03-26T03:42:18.146Z,2.79
2019-03-26T03:43:19.055Z,2.79
2019-03-26T03:44:19.544Z,2.85
2019-03-26T03:45:20.156Z,2.76
2019-03-26T03:46:20.493Z,2.73
2019-03-26T03:47:21.033Z,2.85
2019-03-26T03:48:22.063Z,2.77
2019-03-26T03:49:23.368Z,2.8
2019-03-26T03:50:23.873Z,2.95
2019-03-26T03:51:24.343Z,2.94
2019-03-26T03:52:24.950Z,2.91
2019-03-26T03:53:26.001Z,2.98
2019-03-26T03:54:26.616Z,2.87
2019-03-26T03:55:26.659Z,2.95
2019-03-26T03:56:27.974Z,2.98
2019-03-26T03:57:28.756Z,2.95
2019-03-26T03:58:30.106Z,3.01
2019-03-26T03:59:30.703Z,3.01
2019-03-26T04:00:31.870Z,3
2019-03-26T04:01:32.183Z,3.08
2019-03-26T04:02:32.212Z,3.11
2019-03-26T04:03:32.810Z,2.97
2019-03-26T04:04:32.872Z,3
2019-03-26T04:05:33.357Z,3.01
2019-03-26T04:06:34.413Z,3.11
2019-03-26T04:07:35.201Z,3.08
2019-03-26T04:08:35.512Z,3.13
2019-03-26T04:09:37.098Z,3.18
2019-03-26T04:10:37.720Z,3.31
2019-03-26T04:11:39.427Z,3.31
2019-03-26T04:12:39.481Z,3.36
2019-03-26T04:13:39.554Z,3.4
2019-03-26T04:14:40.639Z,3.43
2019-03-26T04:15:41.136Z,3.37
2019-03-26T04:16:42.753Z,3.49
2019-03-26T04:17:43.413Z,3.46
2019-03-26T04:18:43.898Z,3.37
2019-03-26T04:19:45.212Z,3.36
2019-03-26T04:20:46.088Z,3.53
2019-03-26T04:21:47.536Z,3.46
2019-03-26T04:22:47.302Z,3.33
2019-03-26T04:23:48.146Z,3.21
2019-03-26T04:24:49.740Z,3.36
2019-03-26T04:25:50.333Z,3.34
2019-03-26T04:26:51.229Z,3.31
2019-03-26T04:27:51.866Z,3.33
2019-03-26T04:28:53.192Z,3.31
2019-03-26T04:29:53.838Z,3.48
2019-03-26T04:30:54.541Z,3.34
2019-03-26T04:31:55.867Z,3.45
2019-03-26T04:32:56.462Z,3.46
2019-03-26T04:33:56.505Z,3.46
2019-03-26T04:34:57.313Z,3.48
2019-03-26T04:35:57.352Z,3.49
2019-03-26T04:36:58.694Z,3.45
2019-03-26T04:38:00.064Z,3.34
2019-03-26T04:39:01.497Z,3.43
2019-03-26T04:40:02.217Z,3.45
2019-03-26T04:41:03.649Z,3.43
2019-03-26T04:42:03.405Z,3.37
2019-03-26T04:43:05.066Z,3.5
2019-03-26T04:44:05.139Z,3.49
2019-03-26T04:45:05.414Z,3.49
2019-03-26T04:46:06.441Z,3.53
2019-03-26T04:47:07.189Z,3.56
2019-03-26T04:48:07.975Z,3.5
2019-03-26T04:49:09.015Z,3.59
2019-03-26T04:50:10.046Z,3.61
2019-03-26T04:51:11.068Z,3.53
2019-03-26T04:52:11.821Z,3.56
2019-03-26T04:53:12.294Z,3.58
2019-03-26T04:54:12.791Z,3.67
2019-03-26T04:55:13.263Z,3.67
2019-03-26T04:56:13.740Z,3.64
2019-03-26T04:57:14.833Z,3.61
2019-03-26T04:58:15.812Z,3.61
2019-03-26T04:59:16.555Z,3.59
2019-03-26T05:00:17.599Z,3.64
2019-03-26T05:01:17.839Z,3.74
2019-03-26T05:02:18.595Z,3.71
2019-03-26T05:03:18.810Z,3.78
2019-03-26T05:04:19.858Z,3.85
2019-03-26T05:05:20.890Z,3.82
2019-03-26T05:06:22.770Z,3.81
2019-03-26T05:06:39.059Z,3.73
2019-03-26T05:06:42.951Z,3.68
2019-03-26T05:07:42.905Z,3.76
2019-03-26T05:08:43.653Z,3.74
2019-03-26T05:09:44.230Z,3.76
2019-03-26T05:10:45.263Z,3.76
2019-03-26T05:11:46.230Z,3.86
2019-03-26T05:12:46.747Z,3.85
2019-03-26T05:13:46.944Z,3.73
2019-03-26T05:14:47.727Z,3.74
2019-03-26T05:15:48.759Z,3.67
2019-03-26T05:16:49.530Z,3.59
2019-03-26T05:17:49.822Z,3.49
2019-03-26T05:18:50.576Z,3.61
2019-03-26T05:19:51.330Z,3.55
2019-03-26T05:20:52.471Z,3.41
2019-03-26T05:21:52.666Z,3.4
2019-03-26T05:22:53.702Z,3.49
2019-03-26T05:23:54.178Z,3.4
2019-03-26T05:24:55.481Z,3.43
2019-03-26T05:25:56.239Z,3.37
2019-03-26T05:26:57.275Z,3.41
2019-03-26T05:27:57.761Z,3.4
2019-03-26T05:28:58.802Z,3.45
2019-03-26T05:29:59.349Z,3.41
2019-03-26T05:31:00.663Z,3.45
2019-03-26T05:32:01.766Z,3.49
2019-03-26T05:33:01.819Z,3.41
2019-03-26T05:34:02.300Z,3.5
2019-03-26T05:35:03.072Z,3.5
2019-03-26T05:36:03.837Z,3.58
2019-03-26T05:37:05.154Z,3.56
2019-03-26T05:38:06.015Z,3.61
2019-03-26T05:39:06.494Z,3.58
2019-03-26T05:40:06.970Z,3.58
2019-03-26T05:41:10.820Z,3.58
2019-03-26T05:42:08.624Z,3.68
2019-03-26T05:43:09.111Z,3.68
2019-03-26T05:44:09.868Z,3.66
2019-03-26T05:45:10.638Z,3.64
2019-03-26T05:46:11.117Z,3.7
2019-03-26T05:47:11.348Z,3.59
2019-03-26T05:48:12.305Z,3.56
2019-03-26T05:49:12.520Z,3.58
2019-03-26T05:50:13.554Z,3.61
2019-03-26T05:51:14.313Z,3.67
2019-03-26T05:52:15.070Z,3.63
2019-03-26T05:53:15.937Z,3.59
2019-03-26T05:54:16.260Z,3.46
2019-03-26T05:55:17.013Z,3.43
2019-03-26T05:56:17.490Z,3.53
2019-03-26T05:57:18.554Z,3.5
2019-03-26T05:58:19.354Z,3.49
2019-03-26T05:59:20.105Z,3.56
2019-03-26T06:00:20.573Z,3.56
2019-03-26T06:01:21.064Z,3.48
2019-03-26T06:02:21.293Z,3.53
2019-03-26T06:03:21.769Z,3.49
2019-03-26T06:04:22.246Z,3.55
2019-03-26T06:05:23.003Z,3.52
2019-03-26T06:06:23.762Z,3.59
2019-03-26T06:07:24.235Z,3.58
2019-03-26T06:08:24.440Z,3.58
2019-03-26T06:09:24.916Z,3.61
2019-03-26T06:10:25.127Z,3.49
2019-03-26T06:11:25.888Z,3.63
2019-03-26T06:12:26.976Z,3.7
2019-03-26T06:13:27.729Z,3.74
2019-03-26T06:14:27.929Z,3.85
2019-03-26T06:15:28.409Z,3.73
2019-03-26T06:16:39.869Z,3.78
2019-03-26T06:17:39.638Z,3.7
2019-03-26T06:18:39.950Z,3.78
2019-03-26T06:19:40.427Z,3.71
2019-03-26T06:20:41.456Z,3.7
2019-03-26T06:21:42.489Z,3.84
2019-03-26T06:22:42.977Z,3.89
2019-03-26T06:23:43.755Z,3.85
2019-03-26T06:24:44.065Z,3.85
2019-03-26T06:25:45.694Z,3.81
2019-03-26T06:26:46.385Z,3.73
2019-03-26T06:27:46.304Z,3.7
2019-03-26T06:28:47.610Z,3.7
2019-03-26T06:29:47.941Z,3.68
2019-03-26T06:30:48.716Z,3.73
2019-03-26T06:31:49.753Z,3.84
2019-03-26T06:32:50.513Z,3.71
2019-03-26T06:33:50.991Z,3.71
2019-03-26T06:34:51.466Z,3.86
2019-03-26T06:35:52.865Z,3.89
2019-03-26T06:36:53.063Z,3.81
2019-03-26T06:37:53.728Z,3.85
2019-03-26T06:38:53.773Z,3.88
2019-03-26T06:39:54.254Z,3.81
2019-03-26T06:40:54.946Z,3.81
2019-03-26T06:41:55.697Z,3.76
2019-03-26T06:42:56.233Z,3.89
2019-03-26T06:43:57.265Z,3.92
2019-03-26T06:44:58.390Z,3.81
2019-03-26T06:45:59.424Z,3.71
2019-03-26T06:46:59.620Z,3.71
2019-03-26T06:48:00.292Z,3.82
2019-03-26T06:49:00.904Z,3.71
2019-03-26T06:50:01.951Z,3.7
2019-03-26T06:51:02.598Z,3.82
2019-03-26T06:52:03.646Z,3.85
2019-03-26T06:53:04.244Z,3.81
2019-03-26T06:54:04.296Z,3.85
2019-03-26T06:55:04.767Z,3.71
2019-03-26T06:56:05.531Z,3.67
2019-03-26T06:57:06.015Z,3.78
2019-03-26T06:58:06.947Z,3.74
2019-03-26T06:59:07.980Z,3.88
2019-03-26T07:00:09.073Z,3.89
2019-03-26T07:01:09.267Z,3.91
2019-03-26T07:02:10.029Z,3.91
2019-03-26T07:03:11.058Z,3.85
2019-03-26T07:04:11.537Z,3.96
2019-03-26T07:05:12.300Z,3.95
2019-03-26T07:06:13.333Z,3.95
2019-03-26T07:07:14.119Z,4.02
2019-03-26T07:08:14.366Z,3.96
2019-03-26T07:09:15.125Z,3.99
2019-03-26T07:10:16.157Z,4
2019-03-26T07:11:17.201Z,4.02
2019-03-26T07:12:18.525Z,4.06
2019-03-26T07:13:19.003Z,4.06
2019-03-26T07:14:19.502Z,4.16
2019-03-26T07:15:20.535Z,4.14
2019-03-26T07:16:20.734Z,4.2
2019-03-26T07:17:21.309Z,4.14
2019-03-26T07:18:21.948Z,4.16
2019-03-26T07:19:22.705Z,4.27
2019-03-26T07:20:23.457Z,4.32
2019-03-26T07:21:24.489Z,4.32
2019-03-26T07:22:25.286Z,4.42
2019-03-26T07:23:25.756Z,4.52
2019-03-26T07:24:27.078Z,4.52
2019-03-26T07:25:27.388Z,4.53
2019-03-26T07:26:28.241Z,4.57
2019-03-26T07:27:28.561Z,4.56
2019-03-26T07:28:28.769Z,4.71
2019-03-26T07:29:29.257Z,4.71
2019-03-26T07:30:29.735Z,4.82
2019-03-26T07:31:30.217Z,4.86
2019-03-26T07:32:30.693Z,4.87
2019-03-26T07:33:31.481Z,4.78
2019-03-26T07:34:31.526Z,4.83
2019-03-26T07:35:32.006Z,4.87
2019-03-26T07:36:32.485Z,4.9
2019-03-26T07:37:46.634Z,5.02
2019-03-26T07:38:44.451Z,5.02
2019-03-26T07:39:45.078Z,4.98
2019-03-26T07:40:45.565Z,5.08
2019-03-26T07:41:46.071Z,5
2019-03-26T07:42:46.463Z,4.97
2019-03-26T07:43:46.957Z,4.9
2019-03-26T07:44:47.990Z,4.86
2019-03-26T07:45:48.757Z,4.79
2019-03-26T07:46:49.234Z,4.83
2019-03-26T07:47:49.724Z,4.84
2019-03-26T07:48:50.924Z,4.79
2019-03-26T07:49:51.402Z,4.67
2019-03-26T07:50:52.160Z,4.7
2019-03-26T07:51:52.915Z,4.66
2019-03-26T07:52:53.675Z,4.56
2019-03-26T07:53:53.874Z,4.58
2019-03-26T07:54:54.356Z,4.46
2019-03-26T07:55:55.391Z,4.48
2019-03-26T07:56:56.426Z,4.3
2019-03-26T07:57:58.304Z,4.27
2019-03-26T07:58:58.861Z,4.32
2019-03-26T07:59:59.060Z,4.3
2019-03-26T08:01:00.045Z,4.4
2019-03-26T08:02:00.801Z,4.5
2019-03-26T08:03:01.590Z,4.53
2019-03-26T08:04:03.031Z,4.63
2019-03-26T08:05:03.793Z,4.74
2019-03-26T08:06:04.833Z,4.79
2019-03-26T08:07:05.593Z,4.92
2019-03-26T08:08:06.405Z,5.08
2019-03-26T08:09:07.784Z,5.19
2019-03-26T08:10:08.347Z,5.29
2019-03-26T08:11:08.587Z,5.33
2019-03-26T08:12:09.367Z,5.44
2019-03-26T08:13:10.723Z,5.41
2019-03-26T08:14:11.037Z,5.37
2019-03-26T08:15:11.516Z,5.43
2019-03-26T08:16:12.197Z,5.43
2019-03-26T08:17:13.407Z,5.46
2019-03-26T08:18:13.479Z,5.56
2019-03-26T08:19:13.964Z,5.54
2019-03-26T08:20:14.274Z,5.52
2019-03-26T08:21:14.597Z,5.61
2019-03-26T08:22:14.792Z,5.47
2019-03-26T08:23:15.549Z,5.34
2019-03-26T08:24:16.578Z,5.29
2019-03-26T08:25:17.058Z,5.15
2019-03-26T08:26:17.537Z,5.23
2019-03-26T08:27:18.025Z,5.38
2019-03-26T08:28:18.784Z,5.73
2019-03-26T08:29:20.038Z,5.69
2019-03-26T08:30:21.421Z,5.77
2019-03-26T08:31:21.689Z,5.8
2019-03-26T08:32:23.004Z,5.84
2019-03-26T08:33:25.087Z,5.83
2019-03-26T08:34:25.760Z,5.88
2019-03-26T08:35:25.567Z,5.99
2019-03-26T08:36:26.336Z,6.01
2019-03-26T08:37:27.093Z,5.92
2019-03-26T08:38:27.596Z,6.01
2019-03-26T08:39:27.830Z,5.94
2019-03-26T08:40:28.588Z,5.98
2019-03-26T08:41:29.231Z,5.91
2019-03-26T08:42:30.409Z,5.76
2019-03-26T08:43:31.281Z,5.65
2019-03-26T08:44:32.720Z,5.55
2019-03-26T08:45:32.998Z,5.58
2019-03-26T08:46:33.698Z,5.52
2019-03-26T08:47:34.208Z,5.56
2019-03-26T08:48:35.082Z,5.61
2019-03-26T08:49:35.664Z,5.62
2019-03-26T08:50:36.932Z,5.76
2019-03-26T08:51:37.259Z,5.87
2019-03-26T08:52:38.571Z,5.9
2019-03-26T08:53:38.390Z,5.99
2019-03-26T08:54:38.878Z,6.07
2019-03-26T08:55:39.658Z,5.99
2019-03-26T08:56:40.295Z,6.02
2019-03-26T08:57:41.194Z,6.15
2019-03-26T08:58:42.259Z,6.13
2019-03-26T08:59:42.763Z,6.12
2019-03-26T09:00:43.250Z,6.19
2019-03-26T09:01:44.887Z,6.32
2019-03-26T09:02:45.640Z,6.36
2019-03-26T09:03:46.745Z,6.36
2019-03-26T09:04:47.228Z,6.35
2019-03-26T09:05:47.992Z,6.34
2019-03-26T09:06:48.471Z,6.19
2019-03-26T09:07:49.016Z,6.1
2019-03-26T09:08:50.142Z,6.07
2019-03-26T09:09:50.925Z,6.06
2019-03-26T09:10:53.320Z,5.92
2019-03-26T09:11:53.808Z,5.95
2019-03-26T09:12:55.202Z,5.91
2019-03-26T09:13:55.683Z,5.83
2019-03-26T09:14:57.008Z,5.88
2019-03-26T09:15:57.212Z,5.9
2019-03-26T09:16:57.691Z,5.81
2019-03-26T09:17:57.890Z,5.7
2019-03-26T09:18:58.457Z,5.8
2019-03-26T09:19:58.982Z,6.35
2019-03-26T09:20:59.755Z,6.59
2019-03-26T09:22:01.569Z,6.72
2019-03-26T09:23:01.702Z,6.82
2019-03-26T09:24:03.027Z,7.19
2019-03-26T09:25:03.070Z,7.83
2019-03-26T09:26:03.836Z,7.74
2019-03-26T09:27:04.038Z,7.55
2019-03-26T09:28:05.363Z,7.4
2019-03-26T09:29:06.127Z,7.61
2019-03-26T09:30:07.353Z,7.36
2019-03-26T09:31:08.417Z,7.1
2019-03-26T09:32:09.174Z,7.01
2019-03-26T09:33:09.670Z,6.86
2019-03-26T09:34:11.645Z,6.78
2019-03-26T09:35:12.406Z,6.82
2019-03-26T09:36:13.734Z,7.04
2019-03-26T09:37:13.847Z,7
2019-03-26T09:38:14.816Z,7.22
2019-03-26T09:39:15.103Z,7.13
2019-03-26T09:40:15.543Z,7.23
2019-03-26T09:41:16.335Z,7.55
2019-03-26T09:42:17.105Z,7.5
2019-03-26T09:43:18.192Z,8.09
2019-03-26T09:44:19.513Z,7.9
2019-03-26T09:45:19.998Z,7.83
2019-03-26T09:46:21.593Z,7.8
2019-03-26T09:47:22.366Z,7.74
2019-03-26T09:48:22.852Z,7.67
2019-03-26T09:49:23.331Z,7.67
2019-03-26T09:50:23.583Z,7.51
2019-03-26T09:51:24.342Z,7.62
2019-03-26T09:52:24.555Z,7.69
2019-03-26T09:53:25.316Z,7.7
2019-03-26T09:54:25.525Z,7.58
2019-03-26T09:55:26.905Z,7.66
2019-03-26T09:56:33.219Z,7.64
2019-03-26T09:56:37.447Z,7.58
2019-03-26T09:57:38.872Z,7.62
2019-03-26T09:58:40.206Z,7.75
2019-03-26T09:59:40.528Z,7.85
2019-03-26T10:00:42.147Z,7.98
2019-03-26T10:01:42.533Z,8.06
2019-03-26T10:02:44.753Z,8.16
2019-03-26T10:03:45.513Z,8.13
2019-03-26T10:04:46.296Z,8.16
2019-03-26T10:05:46.782Z,7.99
2019-03-26T10:06:47.541Z,8.11
2019-03-26T10:07:47.604Z,8.17
2019-03-26T10:08:54.354Z,8.35
2019-03-26T10:08:58.758Z,8.45
2019-03-26T10:09:59.724Z,8.41
2019-03-26T10:11:00.987Z,8.68
2019-03-26T10:12:01.750Z,8.77
2019-03-26T10:13:02.568Z,8.78
2019-03-26T10:14:03.070Z,8.89
2019-03-26T10:15:03.832Z,9.11
2019-03-26T10:16:04.037Z,9
2019-03-26T10:17:04.800Z,9.33
2019-03-26T10:18:05.394Z,9.55
2019-03-26T10:19:06.432Z,9.92
2019-03-26T10:20:07.378Z,10.34
2019-03-26T10:21:08.460Z,10.75
2019-03-26T10:22:09.501Z,11.2
2019-03-26T10:23:10.544Z,11.89
2019-03-26T10:24:11.312Z,12.43
2019-03-26T10:25:13.087Z,12.78
2019-03-26T10:26:13.294Z,12.88
2019-03-26T10:27:13.509Z,13.05
2019-03-26T10:28:14.549Z,13.11
2019-03-26T10:29:32.138Z,12.61
2019-03-26T10:29:36.247Z,12.55
2019-03-26T10:30:36.624Z,12.18
2019-03-26T10:31:37.667Z,11.96
2019-03-26T10:32:38.158Z,11.88
2019-03-26T10:33:38.648Z,11.58
2019-03-26T10:34:39.213Z,11.1
2019-03-26T10:35:39.700Z,10.77
2019-03-26T10:36:42.707Z,10.39
2019-03-26T10:37:42.918Z,10.06
2019-03-26T10:38:44.242Z,9.74
2019-03-26T10:39:45.012Z,9.52
2019-03-26T10:40:45.894Z,9.13
2019-03-26T10:41:45.955Z,8.95
2019-03-26T10:42:47.599Z,8.86
2019-03-26T10:43:48.087Z,8.53
2019-03-26T10:44:48.388Z,8.52
2019-03-26T10:45:48.871Z,8.5
2019-03-26T10:46:49.199Z,8.63
2019-03-26T10:47:49.415Z,8.69
2019-03-26T10:48:50.172Z,8.71
2019-03-26T10:49:51.213Z,8.75
2019-03-26T10:50:51.214Z,8.41
2019-03-26T10:51:51.972Z,8.34
2019-03-26T10:52:52.181Z,8.18
2019-03-26T10:53:52.959Z,8.14
2019-03-26T10:54:53.777Z,8.09
2019-03-26T10:55:54.263Z,8.14
2019-03-26T10:56:55.027Z,8.23
2019-03-26T10:57:56.067Z,8.38
2019-03-26T10:58:56.557Z,8.53
2019-03-26T10:59:57.331Z,8.64
2019-03-26T11:00:58.022Z,8.97
2019-03-26T11:02:01.218Z,9.09
2019-03-26T11:03:02.688Z,8.97
2019-03-26T11:04:02.623Z,9.11
2019-03-26T11:05:04.004Z,9.54
2019-03-26T11:06:04.592Z,10.13
2019-03-26T11:07:06.033Z,10.68
2019-03-26T11:08:05.984Z,11.13
2019-03-26T11:09:28.830Z,11.96
2019-03-26T11:10:28.030Z,12.39
2019-03-26T11:11:28.066Z,12.91
2019-03-26T11:12:28.818Z,13.31
2019-03-26T11:13:30.436Z,13.45
2019-03-26T11:14:33.884Z,13.57
2019-03-26T11:15:33.552Z,13.82
2019-03-26T11:16:35.179Z,13.87
2019-03-26T11:17:36.694Z,13.37
2019-03-26T11:18:37.134Z,13.24
2019-03-26T11:19:38.227Z,13.27
2019-03-26T11:20:38.560Z,13.55
2019-03-26T11:21:39.047Z,13.58
2019-03-26T11:22:39.834Z,13.54
2019-03-26T11:23:40.877Z,13.8
2019-03-26T11:24:41.436Z,13.85
2019-03-26T11:25:41.932Z,13.61
2019-03-26T11:26:42.235Z,13.05
2019-03-26T11:27:43.047Z,12.9
2019-03-26T11:28:43.699Z,12.28
2019-03-26T11:29:44.874Z,11.76
2019-03-26T11:30:45.087Z,11.88
2019-03-26T11:31:46.330Z,11.55
2019-03-26T11:32:46.621Z,11.33
2019-03-26T11:33:47.147Z,11.38
2019-03-26T11:34:47.914Z,11.37
2019-03-26T11:35:48.142Z,11.23
2019-03-26T11:36:48.666Z,10.95
2019-03-26T11:37:49.436Z,10.57
2019-03-26T11:38:50.210Z,10.27
2019-03-26T11:39:50.537Z,10.12
2019-03-26T11:40:51.073Z,10.27
2019-03-26T11:41:51.842Z,10.23
2019-03-26T11:42:52.616Z,10.25
2019-03-26T11:43:53.468Z,10.15
2019-03-26T11:44:54.258Z,10.43
2019-03-26T11:45:54.764Z,10.38
2019-03-26T11:46:55.834Z,10.24
2019-03-26T11:47:56.218Z,10.33
2019-03-26T11:48:56.813Z,10.1
2019-03-26T11:49:57.853Z,9.95
2019-03-26T11:50:58.826Z,9.8
2019-03-26T11:51:59.328Z,9.9
2019-03-26T11:52:59.933Z,9.99
2019-03-26T11:53:59.984Z,9.67
2019-03-26T11:55:00.911Z,9.54
2019-03-26T11:56:01.689Z,9.48
2019-03-26T11:57:02.196Z,9.48
2019-03-26T11:58:03.115Z,9.39
2019-03-26T11:59:03.598Z,9.4
2019-03-26T12:00:04.643Z,9.51
2019-03-26T12:01:05.826Z,9.63
2019-03-26T12:02:06.389Z,9.67
2019-03-26T12:03:07.200Z,9.63
2019-03-26T12:04:08.337Z,9.73
2019-03-26T12:05:09.382Z,9.74
2019-03-26T12:06:10.143Z,9.63
2019-03-26T12:07:10.912Z,9.64
2019-03-26T12:08:10.951Z,9.54
2019-03-26T12:09:11.519Z,9.55
2019-03-26T12:10:12.240Z,9.63
2019-03-26T12:11:13.744Z,9.67
2019-03-26T12:12:14.194Z,9.59
2019-03-26T12:13:14.761Z,9.67
2019-03-26T12:14:15.609Z,9.67
2019-03-26T12:15:16.471Z,9.67
2019-03-26T12:16:17.515Z,9.63
2019-03-26T12:17:18.000Z,9.7
2019-03-26T12:18:18.495Z,10.06
2019-03-26T12:19:19.231Z,10.39
2019-03-26T12:20:20.005Z,10.42
2019-03-26T12:21:20.667Z,10.43
2019-03-26T12:22:21.714Z,10.57
2019-03-26T12:23:22.264Z,10.68
2019-03-26T12:24:22.675Z,10.59
2019-03-26T12:25:23.712Z,10.67
2019-03-26T12:26:25.038Z,10.75
2019-03-26T12:27:25.804Z,11.1
2019-03-26T12:28:27.395Z,11.35
2019-03-26T12:29:27.403Z,11.65
2019-03-26T12:30:28.449Z,12.17
2019-03-26T12:31:28.763Z,12.17
2019-03-26T12:32:29.530Z,12.37
2019-03-26T12:33:30.021Z,12.29
2019-03-26T12:34:33.789Z,12.11
2019-03-26T12:34:40.398Z,12.15
2019-03-26T12:35:40.867Z,11.88
2019-03-26T12:36:41.949Z,11.8
2019-03-26T12:37:42.715Z,11.83
2019-03-26T12:38:43.606Z,11.88
2019-03-26T12:40:01.570Z,12.21
2019-03-26T12:40:05.964Z,12.28
2019-03-26T12:41:05.264Z,12.33
2019-03-26T12:42:06.396Z,12.44
2019-03-26T12:43:07.864Z,12.54
2019-03-26T12:44:07.933Z,12.4
2019-03-26T12:45:08.818Z,12.45
2019-03-26T12:46:09.391Z,12.32
2019-03-26T12:47:10.646Z,12.17
2019-03-26T12:48:11.682Z,12.08
2019-03-26T12:49:12.793Z,11.88
2019-03-26T12:50:13.586Z,11.78
2019-03-26T12:51:14.083Z,11.3
2019-03-26T12:52:15.829Z,11.04
2019-03-26T12:53:15.545Z,10.79
2019-03-26T12:54:16.592Z,10.89
2019-03-26T12:55:17.360Z,11
2019-03-26T12:56:18.230Z,10.86
2019-03-26T12:57:19.575Z,10.86
2019-03-26T12:58:37.143Z,10.65
2019-03-26T12:58:41.812Z,10.68
2019-03-26T12:59:41.299Z,10.28
2019-03-26T13:00:41.351Z,10.1
2019-03-26T13:01:42.395Z,9.92
2019-03-26T13:02:43.271Z,9.87
2019-03-26T13:03:44.253Z,9.85
2019-03-26T13:04:45.177Z,9.85
2019-03-26T13:05:45.854Z,9.87
2019-03-26T13:06:46.989Z,9.87
2019-03-26T13:07:47.532Z,9.84
2019-03-26T13:08:51.353Z,9.67
2019-03-26T13:09:54.143Z,9.59
2019-03-26T13:10:15.439Z,9.62
2019-03-26T13:10:22.749Z,9.67
2019-03-26T13:11:21.895Z,9.52
2019-03-26T13:12:23.231Z,9.56
2019-03-26T13:13:23.272Z,9.67
2019-03-26T13:14:24.391Z,9.63
2019-03-26T13:15:24.873Z,9.66
2019-03-26T13:16:25.366Z,9.62
2019-03-26T13:17:26.514Z,9.85
2019-03-26T13:18:27.056Z,9.87
2019-03-26T13:19:27.813Z,9.88